Time;durP1;ratioP1;P1;durP2;ratioP2;P2;SDS_P1;SDS_P2;PMS_P1;PMS_P2;Temp;Humidity;BMP_temperature;BMP_pressure;BME280_temperature;BME280_humidity;BME280_pressure;Samples;Min_cycle;Max_cycle;Signal;HPM_P1;HPM_P2
2023/07/31 00:00:49;;;;;;;13.00;4.13;;;;;;;19.68;90.90;99693.53;10320692;28;20057;-76
2023/07/31 00:05:50;;;;;;;13.98;4.82;;;;;;;20.17;91.23;99790.88;10338736;28;20180;-75
2023/07/31 00:10:54;;;;;;;10.23;4.43;;;;;;;20.02;93.40;99769.88;10337820;28;20065;-75
2023/07/31 00:15:54;;;;;;;;;;;;;;;20.34;93.56;99790.91;10320687;28;20034;-75
2023/07/31 00:20:55;;;;;;;8.30;3.85;;;;;;;19.51;91.36;99680.03;10337677;28;19925;-76
2023/07/31 00:25:56;;;;;;;7.55;3.90;;;;;;;19.95;92.25;99777.31;10337699;28;20070;-75
2023/07/31 00:30:56;;;;;;;8.82;4.13;;;;;;;19.46;92.92;99725.75;10337318;28;20128;-75
2023/07/31 00:35:57;;;;;;;7.63;4.47;;;;;;;19.18;93.06;99699.63;10337830;28;20449;-75
2023/07/31 00:40:58;;;;;;;8.57;4.15;;;;;;;19.82;93.44;99807.25;10337186;28;20052;-76
2023/07/31 00:45:59;;;;;;;9.80;4.10;;;;;;;19.38;93.94;99742.28;10336042;28;20042;-75
2023/07/31 00:51:01;;;;;;;8.43;4.43;;;;;;;19.93;94.27;99811.78;10336732;28;20456;-75
2023/07/31 00:56:02;;;;;;;7.25;4.32;;;;;;;19.88;94.16;99800.09;10336075;28;20550;-75
2023/07/31 01:01:02;;;;;;;15.10;4.93;;;;;;;19.69;93.99;99805.69;10336187;28;20101;-76
2023/07/31 01:06:22;;;;;;;42.00;5.78;;;;;;;18.56;96.28;99642.94;10318317;28;20038;-78
2023/07/31 01:11:28;;;;;;;43.95;5.50;;;;;;;19.51;96.26;99822.00;10319077;28;20129;-76
2023/07/31 01:16:29;;;;;;;16.45;5.07;;;;;;;19.46;95.25;99809.25;10318135;28;20100;-75
2023/07/31 01:21:54;;;;;;;13.18;4.07;;;;;;;19.32;98.29;99807.88;10334873;28;20502;-75
2023/07/31 01:27:17;;;;;;;33.63;5.28;;;;;;;19.21;98.50;99792.59;10335398;28;20128;-75
2023/07/31 01:32:19;;;;;;;105.05;9.68;;;;;;;18.21;95.76;99641.91;10335509;28;20047;-75
2023/07/31 01:37:20;;;;;;;43.47;6.10;;;;;;;18.77;96.15;99749.13;10317032;28;20509;-75
2023/07/31 01:42:20;;;;;;;98.20;9.77;;;;;;;19.26;96.33;99822.28;10334221;28;20043;-75
2023/07/31 01:47:21;;;;;;;18.13;4.32;;;;;;;19.21;96.30;99820.31;10335076;28;20125;-76
2023/07/31 01:52:22;;;;;;;17.13;4.70;;;;;;;19.23;96.42;99810.13;10335042;28;20049;-77
2023/07/31 01:57:23;;;;;;;77.18;7.85;;;;;;;19.39;96.46;99836.31;10334024;28;20114;-75
2023/07/31 02:02:24;;;;;;;133.20;10.45;;;;;;;18.00;95.86;99621.81;10333733;28;20052;-75
2023/07/31 02:07:24;;;;;;;50.60;6.00;;;;;;;18.99;95.85;99793.19;10333833;28;20107;-75
2023/07/31 02:12:25;;;;;;;13.95;4.18;;;;;;;18.52;95.87;99715.22;10333852;28;20063;-76
2023/07/31 02:17:26;;;;;;;10.23;4.78;;;;;;;18.95;96.24;99767.81;10334309;28;20136;-75
2023/07/31 02:22:26;;;;;;;50.42;6.72;;;;;;;19.22;96.30;99778.88;10333099;28;20192;-76
2023/07/31 02:27:27;;;;;;;30.48;5.22;;;;;;;18.78;95.73;99716.59;10333151;28;20052;-75
2023/07/31 02:32:28;;;;;;;8.35;4.30;;;;;;;19.28;95.69;99758.25;10332433;28;20421;-76
2023/07/31 02:37:29;;;;;;;66.22;6.18;;;;;;;19.99;95.56;99843.16;10315395;28;20422;-75
2023/07/31 02:42:30;;;;;;;127.57;12.80;;;;;;;19.83;95.63;99781.94;10331933;28;20054;-75
2023/07/31 02:47:30;;;;;;;46.95;5.97;;;;;;;20.08;95.31;99765.41;10332883;28;20397;-75
2023/07/31 02:52:31;;;;;;;95.82;8.88;;;;;;;21.31;94.12;99856.28;10331935;28;20046;-75
2023/07/31 02:57:32;;;;;;;123.97;10.52;;;;;;;22.02;91.80;99815.75;10332037;28;20064;-75
2023/07/31 03:02:33;;;;;;;12.23;4.20;;;;;;;22.95;88.43;99846.03;10314606;28;20521;-75
2023/07/31 03:07:34;;;;;;;8.50;3.85;;;;;;;23.13;84.80;99751.84;10330858;28;20057;-75
2023/07/31 03:12:35;;;;;;;9.32;4.00;;;;;;;24.01;81.10;99768.03;10332033;28;20090;-76
2023/07/31 03:17:36;;;;;;;7.50;3.67;;;;;;;25.40;77.82;99852.88;10331544;28;20038;-78
2023/07/31 03:22:37;;;;;;;9.68;3.70;;;;;;;26.31;73.22;99840.66;10313746;28;20205;-77
2023/07/31 03:27:38;;;;;;;36.92;4.72;;;;;;;27.39;69.27;99843.16;10331023;28;20070;-76
2023/07/31 03:32:39;;;;;;;8.13;4.15;;;;;;;27.90;64.97;99751.59;10330424;28;20530;-77
2023/07/31 03:37:39;;;;;;;10.13;4.55;;;;;;;29.05;61.71;99828.28;10311871;28;20043;-77
2023/07/31 03:42:40;;;;;;;29.48;7.47;;;;;;;30.02;59.59;99823.47;10330253;28;20532;-77
2023/07/31 03:47:41;;;;;;;29.60;5.85;;;;;;;30.89;56.43;99834.22;10329622;28;20045;-76
2023/07/31 03:52:42;;;;;;;9.65;4.60;;;;;;;31.15;54.04;99799.44;10329367;28;20406;-77
2023/07/31 03:57:43;;;;;;;18.73;6.97;;;;;;;31.64;53.06;99823.31;10328262;28;20413;-79
2023/07/31 04:02:43;;;;;;;16.70;7.95;;;;;;;31.81;52.24;99861.78;10327852;28;20125;-78
2023/07/31 04:07:44;;;;;;;25.85;8.82;;;;;;;31.92;51.23;99807.34;10330124;28;20482;-78
2023/07/31 04:12:45;;;;;;;16.13;6.72;;;;;;;32.59;50.45;99849.97;10328789;28;20094;-79
2023/07/31 04:17:46;;;;;;;15.55;8.60;;;;;;;32.64;50.16;99839.59;10327236;28;20506;-78
2023/07/31 04:22:46;;;;;;;16.85;8.75;;;;;;;31.91;50.45;99775.53;10332083;28;20054;-78
2023/07/31 04:27:47;;;;;;;20.08;10.48;;;;;;;32.21;49.48;99815.72;10337159;28;20049;-84
2023/07/31 04:32:48;;;;;;;19.08;9.68;;;;;;;32.60;48.97;99857.06;10320164;28;20524;-80
2023/07/31 04:37:49;;;;;;;23.10;9.25;;;;;;;32.36;48.96;99808.09;10337774;28;20040;-78
2023/07/31 04:42:49;;;;;;;10.50;5.65;;;;;;;32.87;47.84;99856.66;10337709;28;20617;-78
2023/07/31 04:47:50;;;;;;;24.17;7.47;;;;;;;32.28;47.91;99768.53;10335123;28;20060;-77
2023/07/31 04:52:51;;;;;;;17.73;6.00;;;;;;;32.77;47.81;99850.72;10335212;28;20050;-83
2023/07/31 04:57:52;;;;;;;26.70;5.68;;;;;;;32.03;47.40;99773.72;10335985;28;20046;-83
2023/07/31 05:02:52;;;;;;;20.27;5.60;;;;;;;32.40;47.41;99858.53;10336163;28;20546;-82
2023/07/31 05:07:53;;;;;;;22.58;5.03;;;;;;;31.78;47.34;99829.47;10336124;28;20034;-82
2023/07/31 05:12:54;;;;;;;21.67;4.97;;;;;;;31.67;48.38;99853.66;10335133;28;20422;-81
2023/07/31 05:17:55;;;;;;;13.25;4.43;;;;;;;30.85;49.38;99783.88;10335804;28;20122;-81
2023/07/31 05:22:55;;;;;;;26.05;6.13;;;;;;;30.33;48.88;99746.03;10335560;28;20045;-82
2023/07/31 05:27:56;;;;;;;15.13;6.18;;;;;;;30.81;47.58;99840.44;10335659;28;20411;-83
2023/07/31 05:32:57;;;;;;;11.85;5.32;;;;;;;30.39;47.42;99747.50;10317093;28;20034;-83
2023/07/31 05:37:58;;;;;;;14.75;3.83;;;;;;;30.61;46.82;99756.81;10335527;28;20054;-82
2023/07/31 05:42:58;;;;;;;9.38;3.38;;;;;;;31.16;45.64;99833.97;10334886;28;20042;-83
2023/07/31 05:47:59;;;;;;;7.93;3.20;;;;;;;31.29;44.28;99835.00;10334354;28;20560;-84
2023/07/31 05:53:00;;;;;;;9.52;2.10;;;;;;;31.37;42.72;99834.22;10333831;28;20042;-83
2023/07/31 05:58:00;;;;;;;4.28;1.90;;;;;;;30.86;40.46;99758.84;10333925;28;20050;-86
2023/07/31 06:03:01;;;;;;;4.10;1.80;;;;;;;31.48;40.78;99843.00;10333893;28;20486;-85
2023/07/31 06:08:02;;;;;;;5.00;1.70;;;;;;;30.92;39.62;99734.84;10333600;28;20113;-84
2023/07/31 06:13:03;;;;;;;3.33;1.60;;;;;;;31.43;39.49;99842.31;10333920;28;20108;-83
2023/07/31 06:18:07;;;;;;;6.53;1.73;;;;;;;31.12;39.20;99758.94;10333251;28;20395;-86
2023/07/31 06:23:08;;;;;;;4.07;1.85;;;;;;;31.67;38.58;99831.69;10333459;28;20388;-85
2023/07/31 06:28:08;;;;;;;4.88;2.03;;;;;;;31.09;38.71;99734.88;10333699;28;20129;-86
2023/07/31 06:33:09;;;;;;;2.97;1.50;;;;;;;31.95;39.00;99842.41;10333272;28;20128;-84
2023/07/31 06:38:10;;;;;;;10.10;1.73;;;;;;;32.03;37.56;99836.09;10332081;28;20046;-83
2023/07/31 06:43:11;;;;;;;4.65;1.80;;;;;;;31.87;36.61;99823.97;10332039;28;20042;-84
2023/07/31 06:48:12;;;;;;;4.07;1.92;;;;;;;31.29;37.99;99724.41;10333316;28;20042;-85
2023/07/31 06:53:12;;;;;;;5.10;1.60;;;;;;;31.69;37.03;99790.22;10332252;28;20414;-86
2023/07/31 06:58:13;;;;;;;6.00;1.83;;;;;;;31.97;36.63;99820.91;10332118;28;20512;-84
2023/07/31 07:03:14;;;;;;;2.38;1.63;;;;;;;32.13;37.53;99811.06;10314014;28;20108;-86
2023/07/31 07:08:16;;;;;;;5.50;1.90;;;;;;;31.67;36.14;99718.31;10331435;28;20105;-85
2023/07/31 07:13:18;;;;;;;5.40;1.77;;;;;;;32.06;35.87;99817.03;10331649;28;20496;-83
2023/07/31 07:18:19;;;;;;;6.07;1.92;;;;;;;32.16;36.49;99804.91;10331185;28;20046;-81
2023/07/31 07:23:20;;;;;;;12.95;1.75;;;;;;;32.49;35.81;99807.16;10331216;28;20038;-86
2023/07/31 07:28:21;;;;;;;13.10;2.50;;;;;;;32.34;36.30;99728.72;10330951;28;20035;-83
2023/07/31 07:33:22;;;;;;;2.63;1.70;;;;;;;32.92;35.51;99792.41;10330971;28;20105;-84
2023/07/31 07:38:22;;;;;;;10.50;2.17;;;;;;;33.06;35.21;99797.72;10331762;28;20406;-84
2023/07/31 07:43:23;;;;;;;12.50;2.67;;;;;;;32.95;34.92;99775.25;10314585;28;20042;-82
2023/07/31 07:48:25;;;;;;;4.50;1.80;;;;;;;33.13;34.74;99763.03;10331286;28;20042;-87
2023/07/31 07:53:26;;;;;;;11.20;2.13;;;;;;;33.47;35.14;99787.91;10332463;28;20038;-87
2023/07/31 07:58:26;;;;;;;14.55;2.50;;;;;;;33.55;34.78;99771.34;10339045;28;20042;-84
2023/07/31 08:03:27;;;;;;;5.70;1.83;;;;;;;33.26;34.44;99763.91;10338312;28;20042;-87
2023/07/31 08:08:28;;;;;;;10.05;1.92;;;;;;;33.00;33.94;99700.81;10337841;28;20050;-87
2023/07/31 08:13:29;;;;;;;3.85;1.52;;;;;;;33.47;33.39;99763.91;10338918;28;20093;-85
2023/07/31 08:18:32;;;;;;;5.38;1.98;;;;;;;33.39;33.92;99742.78;10338199;28;20080;-85
2023/07/31 08:23:33;;;;;;;5.22;1.80;;;;;;;32.58;34.05;99600.88;10338070;28;20038;-85
2023/07/31 08:28:34;;;;;;;5.63;1.95;;;;;;;33.46;33.81;99731.22;10338333;28;20137;-86
2023/07/31 08:33:35;;;;;;;10.33;2.10;;;;;;;33.39;33.46;99729.03;10337741;28;20046;-87
2023/07/31 08:38:36;;;;;;;8.32;1.90;;;;;;;33.61;33.58;99741.66;10337547;28;20038;-84
2023/07/31 08:43:38;;;;;;;5.95;1.80;;;;;;;33.18;33.91;99657.44;10337509;28;20043;-84
2023/07/31 08:48:40;;;;;;;22.87;2.80;;;;;;;33.65;33.30;99712.28;10336771;28;20034;-84
2023/07/31 08:53:41;;;;;;;5.68;1.83;;;;;;;33.85;33.43;99724.41;10319399;28;20296;-83
2023/07/31 08:58:43;;;;;;;12.55;2.10;;;;;;;33.91;33.42;99712.03;10336525;28;20050;-85
2023/07/31 09:03:45;;;;;;;6.72;1.73;;;;;;;33.51;32.40;99657.53;10336166;28;20042;-84
2023/07/31 09:08:45;;;;;;;8.90;2.30;;;;;;;33.16;32.95;99582.66;10336159;28;20038;-83
2023/07/31 09:13:48;;;;;;;5.95;2.25;;;;;;;34.06;32.85;99705.91;10336457;28;20050;-87
2023/07/31 09:18:56;;;;;;;3.53;1.70;;;;;;;34.05;32.13;99712.56;10335928;28;20521;-86
2023/07/31 09:23:57;;;;;;;6.00;1.88;;;;;;;33.92;32.15;99691.59;10332988;28;20034;-83
2023/07/31 09:28:59;;;;;;;4.60;1.75;;;;;;;34.01;32.61;99706.09;10334695;28;20576;-87
2023/07/31 09:34:00;;;;;;;5.63;1.67;;;;;;;34.00;32.51;99698.19;10332964;28;20041;-85
2023/07/31 09:39:04;;;;;;;10.27;2.40;;;;;;;34.01;31.96;99706.09;10333701;28;20046;-81
2023/07/31 09:44:05;;;;;;;6.05;2.50;;;;;;;33.82;31.77;99692.03;10332456;28;20042;-86
2023/07/31 09:49:11;;;;;;;10.93;2.50;;;;;;;33.56;32.33;99673.00;10333216;28;20041;-83
2023/07/31 09:54:13;;;;;;;3.67;1.80;;;;;;;33.58;31.68;99696.31;10332800;28;20038;-83
2023/07/31 09:59:20;;;;;;;4.38;1.90;;;;;;;33.74;32.63;99679.94;10333521;28;20572;-83
2023/07/31 10:04:27;;;;;;;8.52;2.00;;;;;;;34.01;32.85;99667.50;10330372;28;20138;-82
2023/07/31 10:09:31;;;;;;;5.88;1.83;;;;;;;33.68;32.13;99608.91;10329872;28;20049;-79
2023/07/31 10:14:33;;;;;;;7.95;2.53;;;;;;;34.18;31.82;99680.31;10310250;28;20042;-79
2023/07/31 10:19:35;;;;;;;7.22;2.00;;;;;;;34.02;31.35;99644.34;10330506;28;20078;-84
2023/07/31 10:24:37;;;;;;;3.53;1.75;;;;;;;34.03;31.72;99626.66;10329587;28;20038;-85
2023/07/31 10:29:39;;;;;;;11.57;2.10;;;;;;;33.86;32.02;99599.28;10330245;28;20043;-82
2023/07/31 10:34:42;;;;;;;20.60;2.30;;;;;;;33.95;31.31;99602.75;10327640;28;20305;-82
2023/07/31 10:39:43;;;;;;;8.73;1.90;;;;;;;33.98;30.98;99596.53;10330808;28;20144;-81
2023/07/31 10:44:46;;;;;;;6.03;2.30;;;;;;;34.37;31.57;99654.16;10332253;28;20132;-80
2023/07/31 10:49:48;;;;;;;5.68;2.05;;;;;;;34.02;30.90;99622.28;10329833;28;20046;-82
2023/07/31 10:54:50;;;;;;;7.88;2.05;;;;;;;34.05;31.39;99607.84;10330469;28;20042;-83
2023/07/31 10:59:51;;;;;;;5.32;2.08;;;;;;;34.18;31.49;99636.22;10327520;28;20046;-81
2023/07/31 11:05:10;;;;;;;2.67;1.70;;;;;;;34.04;31.45;99620.03;10331061;28;20042;-80
2023/07/31 11:10:11;;;;;;;6.65;2.22;;;;;;;34.40;31.92;99648.75;10327117;28;20137;-81
2023/07/31 11:15:12;;;;;;;6.35;2.45;;;;;;;33.48;30.77;99517.75;10330072;28;20125;-84
2023/07/31 11:20:13;;;;;;;23.20;2.65;;;;;;;33.81;32.38;99560.97;10329570;28;20418;-83
2023/07/31 11:25:14;;;;;;;7.07;2.33;;;;;;;34.11;31.75;99635.19;10329724;28;20518;-81
2023/07/31 11:30:19;;;;;;;4.50;2.10;;;;;;;33.77;30.41;99585.63;10336559;28;20030;-83
2023/07/31 11:35:19;;;;;;;6.72;2.85;;;;;;;33.82;30.99;99598.38;10338922;28;20129;-81
2023/07/31 11:40:20;;;;;;;7.25;2.13;;;;;;;34.16;31.63;99626.69;10337448;28;20038;-79
2023/07/31 11:45:24;;;;;;;10.15;2.85;;;;;;;34.20;32.09;99602.81;10338134;28;20038;-83
2023/07/31 11:50:26;;;;;;;11.93;2.20;;;;;;;34.20;32.00;99602.81;10336728;28;20146;-79
2023/07/31 11:55:27;;;;;;;4.38;2.30;;;;;;;33.54;31.68;99546.69;10337907;28;20046;-79
2023/07/31 12:00:28;;;;;;;4.50;2.10;;;;;;;33.99;32.04;99603.69;10338332;28;20137;-78
2023/07/31 12:05:30;;;;;;;11.30;2.63;;;;;;;34.07;32.13;99605.56;10336774;28;20042;-81
2023/07/31 12:10:32;;;;;;;4.10;2.22;;;;;;;34.19;31.86;99601.97;10319805;28;20062;-78
2023/07/31 12:15:33;;;;;;;3.47;2.47;;;;;;;34.09;31.02;99600.50;10337517;28;20046;-79
2023/07/31 12:20:35;;;;;;;5.47;2.10;;;;;;;34.17;31.75;99584.22;10333306;28;20092;-84
2023/07/31 12:25:36;;;;;;;5.35;2.38;;;;;;;34.30;32.06;99597.63;10319523;28;20046;-80
2023/07/31 12:30:37;;;;;;;6.65;2.13;;;;;;;34.04;31.31;99553.91;10336920;28;20038;-84
2023/07/31 12:35:41;;;;;;;7.35;2.78;;;;;;;33.60;32.50;99531.56;10336715;28;20517;-85
2023/07/31 12:40:42;;;;;;;5.38;2.30;;;;;;;33.80;31.93;99560.13;10334909;28;20108;-80
2023/07/31 12:45:43;;;;;;;8.18;2.55;;;;;;;33.82;31.50;99555.09;10336378;28;20039;-77
2023/07/31 12:50:44;;;;;;;5.78;2.50;;;;;;;33.80;31.93;99551.06;10337245;28;20046;-84
2023/07/31 12:55:45;;;;;;;8.85;2.60;;;;;;;33.86;31.92;99593.78;10336492;28;20597;-85
2023/07/31 13:00:45;;;;;;;10.10;2.47;;;;;;;33.13;32.88;99473.28;10335993;28;20042;-85
2023/07/31 13:05:46;;;;;;;5.45;2.85;;;;;;;33.82;32.12;99565.31;10336373;28;20088;-82
2023/07/31 13:10:47;;;;;;;9.38;5.50;;;;;;;33.86;32.20;99585.50;10335213;28;20112;-79
2023/07/31 13:15:48;;;;;;;33.75;19.65;;;;;;;33.92;32.82;99581.38;10336012;28;20050;-85
2023/07/31 13:20:48;;;;;;;14.05;7.35;;;;;;;33.72;32.32;99583.09;10335508;28;20042;-80
2023/07/31 13:25:49;;;;;;;10.60;4.82;;;;;;;33.39;33.08;99558.34;10318492;28;20057;-82
2023/07/31 13:30:50;;;;;;;18.75;10.85;;;;;;;32.77;33.15;99537.97;10335178;28;20125;-86
2023/07/31 13:35:51;;;;;;;35.45;5.82;;;;;;;32.74;34.09;99588.16;10334465;28;20042;-78
2023/07/31 13:40:51;;;;;;;7.95;4.00;;;;;;;32.87;33.21;99589.81;10334335;28;20062;-80
2023/07/31 13:45:52;;;;;;;8.95;3.75;;;;;;;32.18;33.63;99544.31;10334463;28;20108;-86
2023/07/31 13:50:53;;;;;;;7.03;2.78;;;;;;;32.45;33.79;99559.56;10334358;28;20410;-83
2023/07/31 13:55:54;;;;;;;7.22;2.70;;;;;;;32.84;33.86;99603.44;10316305;28;20038;-78
2023/07/31 14:00:54;;;;;;;8.60;2.63;;;;;;;32.51;33.69;99532.69;10333310;28;20050;-85
2023/07/31 14:05:55;;;;;;;11.98;2.80;;;;;;;32.11;33.79;99516.59;10330790;28;20042;-84
2023/07/31 14:10:56;;;;;;;6.60;3.10;;;;;;;32.79;34.56;99606.41;10332090;28;20058;-84
2023/07/31 14:15:57;;;;;;;14.07;2.97;;;;;;;32.76;33.97;99579.56;10333400;28;20482;-85
2023/07/31 14:20:58;;;;;;;12.43;3.17;;;;;;;32.43;34.61;99534.34;10315399;28;20422;-86
2023/07/31 14:25:59;;;;;;;87.20;7.35;;;;;;;32.32;33.93;99535.84;10333781;28;20092;-84
2023/07/31 14:30:59;;;;;;;8.18;2.83;;;;;;;32.63;33.78;99612.47;10333700;28;20046;-84
2023/07/31 14:36:01;;;;;;;19.48;3.08;;;;;;;32.55;34.29;99602.38;10331911;28;20085;-84
2023/07/31 14:41:01;;;;;;;14.82;3.22;;;;;;;31.53;34.90;99463.19;10331659;28;20042;-83
2023/07/31 14:46:02;;;;;;;8.32;2.63;;;;;;;32.25;34.45;99574.06;10332401;28;20042;-83
2023/07/31 14:51:03;;;;;;;8.30;2.80;;;;;;;32.10;34.46;99583.66;10332430;28;20449;-84
2023/07/31 14:56:04;;;;;;;42.83;4.28;;;;;;;31.45;35.15;99502.47;10332737;28;20180;-83
2023/07/31 15:01:05;;;;;;;10.48;3.22;;;;;;;31.43;34.78;99534.91;10314439;28;20046;-83
2023/07/31 15:06:07;;;;;;;6.47;2.92;;;;;;;31.79;35.40;99600.38;10331621;28;20121;-83
2023/07/31 15:11:09;;;;;;;;;;;;;;;31.95;34.65;99618.00;10332497;28;20066;-83
2023/07/31 15:16:10;;;;;;;8.25;2.92;;;;;;;31.59;35.36;99605.44;10331640;28;19976;-84
2023/07/31 15:21:11;;;;;;;6.93;2.72;;;;;;;31.52;35.48;99610.63;10330845;28;20406;-85
2023/07/31 15:26:11;;;;;;;28.20;3.22;;;;;;;31.43;36.03;99615.31;10331121;28;20042;-83
2023/07/31 15:31:13;;;;;;;8.65;2.67;;;;;;;31.08;36.14;99590.63;10331175;28;20042;-83
2023/07/31 15:36:14;;;;;;;11.98;2.78;;;;;;;31.14;36.39;99625.00;10332056;28;20137;-85
2023/07/31 15:41:15;;;;;;;17.30;2.95;;;;;;;30.95;36.59;99607.25;10331080;28;20042;-84
2023/07/31 15:46:17;;;;;;;26.05;3.08;;;;;;;30.35;36.91;99551.97;10331858;28;20494;-85
2023/07/31 15:51:18;;;;;;;12.40;3.20;;;;;;;30.67;37.31;99626.69;10330203;28;20046;-83
2023/07/31 15:56:19;;;;;;;16.08;2.58;;;;;;;30.54;37.13;99631.16;10330619;28;20486;-83
2023/07/31 16:01:19;;;;;;;15.40;2.53;;;;;;;30.34;37.76;99629.84;10330228;28;20038;-83
2023/07/31 16:06:20;;;;;;;7.90;2.42;;;;;;;30.22;38.33;99640.59;10331019;28;20482;-83
2023/07/31 16:11:21;;;;;;;12.98;2.60;;;;;;;29.86;38.67;99607.84;10329787;28;20465;-82
2023/07/31 16:16:22;;;;;;;12.07;2.42;;;;;;;29.37;39.13;99560.34;10336041;28;20045;-84
2023/07/31 16:21:23;;;;;;;9.35;2.35;;;;;;;29.62;39.33;99621.88;10337828;28;20425;-83
2023/07/31 16:26:24;;;;;;;9.38;2.10;;;;;;;29.47;40.03;99634.00;10338402;28;20475;-83
2023/07/31 16:31:25;;;;;;;16.55;2.35;;;;;;;29.40;40.14;99647.28;10337084;28;20490;-82
2023/07/31 16:36:26;;;;;;;8.48;2.50;;;;;;;29.12;40.59;99636.44;10337086;28;20055;-83
2023/07/31 16:41:27;;;;;;;7.07;2.38;;;;;;;28.70;40.63;99591.16;10336310;28;20042;-82
2023/07/31 16:46:28;;;;;;;8.55;2.30;;;;;;;28.85;41.12;99637.28;10336960;28;20046;-83
2023/07/31 16:51:28;;;;;;;28.88;3.20;;;;;;;28.41;41.61;99605.97;10336660;28;20038;-83
2023/07/31 16:56:30;;;;;;;14.27;2.72;;;;;;;28.28;42.08;99617.69;10337184;28;20046;-82
2023/07/31 17:01:32;;;;;;;11.65;2.15;;;;;;;28.26;42.70;99653.47;10334674;28;20461;-79
2023/07/31 17:06:34;;;;;;;9.23;2.08;;;;;;;28.22;43.29;99663.41;10335655;28;20049;-80
2023/07/31 17:11:35;;;;;;;15.93;2.72;;;;;;;27.67;43.72;99609.50;10333145;28;20054;-79
2023/07/31 17:16:36;;;;;;;13.95;2.65;;;;;;;28.10;43.99;99693.13;10334066;28;20044;-78
2023/07/31 17:21:37;;;;;;;8.40;2.55;;;;;;;27.47;44.65;99623.47;10334252;28;20509;-78
2023/07/31 17:26:38;;;;;;;6.95;2.25;;;;;;;27.47;45.21;99648.81;10332374;28;20052;-79
2023/07/31 17:31:41;;;;;;;6.00;2.33;;;;;;;27.69;45.37;99713.69;10329622;28;20564;-79
2023/07/31 17:36:41;;;;;;;8.90;2.30;;;;;;;27.60;45.67;99707.28;10329396;28;20060;-79
2023/07/31 17:41:42;;;;;;;5.90;2.10;;;;;;;27.46;46.21;99715.41;10312621;28;20518;-79
2023/07/31 17:46:43;;;;;;;6.07;2.33;;;;;;;27.13;46.64;99676.28;10333181;28;20038;-78
2023/07/31 17:51:44;;;;;;;5.65;2.20;;;;;;;27.21;47.03;99721.22;10332734;28;20097;-79
2023/07/31 17:56:45;;;;;;;9.32;2.33;;;;;;;27.16;47.54;99711.16;10332620;28;20044;-78
2023/07/31 18:01:45;;;;;;;11.23;2.20;;;;;;;27.12;47.71;99714.75;10331725;28;20041;-79
2023/07/31 18:06:46;;;;;;;6.22;2.25;;;;;;;27.13;47.97;99724.56;10332886;28;20074;-79
2023/07/31 18:11:47;;;;;;;6.80;2.38;;;;;;;26.63;48.16;99656.78;10331671;28;20069;-80
2023/07/31 18:16:48;;;;;;;7.90;1.90;;;;;;;26.97;48.63;99729.41;10330192;28;20071;-81
2023/07/31 18:21:48;;;;;;;8.45;1.95;;;;;;;26.77;48.69;99712.19;10332004;28;20120;-80
2023/07/31 18:26:50;;;;;;;6.70;2.00;;;;;;;26.89;48.82;99752.66;10332674;28;20062;-80
2023/07/31 18:31:50;;;;;;;12.23;2.38;;;;;;;26.75;48.87;99746.28;10328418;28;20034;-79
2023/07/31 18:36:51;;;;;;;9.80;2.22;;;;;;;26.25;48.66;99674.91;10330698;28;20061;-78
2023/07/31 18:41:52;;;;;;;10.35;2.53;;;;;;;26.34;49.09;99714.81;10330698;28;20041;-77
2023/07/31 18:46:53;;;;;;;10.23;2.63;;;;;;;26.54;48.84;99756.59;10312960;28;20498;-78
2023/07/31 18:51:53;;;;;;;8.20;2.17;;;;;;;25.78;48.99;99660.88;10329825;28;20100;-78
2023/07/31 18:56:54;;;;;;;5.18;2.17;;;;;;;25.87;49.30;99694.56;10331823;28;20045;-79
2023/07/31 19:01:55;;;;;;;6.63;2.40;;;;;;;25.69;49.40;99670.75;10331710;28;20050;-79
2023/07/31 19:06:56;;;;;;;8.27;2.10;;;;;;;25.73;49.43;99688.94;10332485;28;20048;-80
2023/07/31 19:11:57;;;;;;;6.22;2.47;;;;;;;25.89;49.46;99724.22;10331349;28;20145;-77
2023/07/31 19:16:58;;;;;;;5.90;2.20;;;;;;;25.45;49.86;99660.59;10331649;28;20130;-79
2023/07/31 19:21:58;;;;;;;4.05;2.20;;;;;;;25.08;49.97;99606.72;10331210;28;20614;-80
2023/07/31 19:26:59;;;;;;;6.55;2.78;;;;;;;25.36;49.97;99669.63;10331102;28;20050;-80
2023/07/31 19:32:00;;;;;;;7.45;2.53;;;;;;;25.71;50.05;99731.94;10331505;28;20046;-80
2023/07/31 19:37:00;;;;;;;7.90;2.63;;;;;;;24.52;49.99;99558.16;10331013;28;20049;-80
2023/07/31 19:42:01;;;;;;;20.25;2.90;;;;;;;25.15;50.49;99660.78;10331881;28;20152;-80
2023/07/31 19:47:02;;;;;;;5.40;2.28;;;;;;;25.66;50.94;99758.34;10331390;28;20035;-78
2023/07/31 19:52:03;;;;;;;5.80;2.47;;;;;;;25.09;50.88;99683.63;10339807;28;20482;-79
2023/07/31 19:57:04;;;;;;;9.35;2.63;;;;;;;24.99;51.26;99682.59;10339713;28;20046;-79
2023/07/31 20:02:07;;;;;;;11.55;2.55;;;;;;;24.80;51.63;99666.13;10338941;28;20046;-79
2023/07/31 20:07:08;;;;;;;10.20;2.63;;;;;;;24.25;51.76;99589.19;10338041;28;20050;-79
2023/07/31 20:12:09;;;;;;;9.10;2.22;;;;;;;25.17;51.78;99751.84;10338900;28;20065;-79
2023/07/31 20:17:09;;;;;;;9.05;2.78;;;;;;;24.70;52.27;99690.59;10338862;28;20034;-79
2023/07/31 20:22:10;;;;;;;5.43;2.58;;;;;;;23.86;52.69;99573.56;10338207;28;20046;-77
2023/07/31 20:27:11;;;;;;;5.18;2.47;;;;;;;24.24;52.96;99643.75;10337602;28;20034;-80
2023/07/31 20:32:12;;;;;;;5.13;2.67;;;;;;;24.78;53.38;99749.78;10338845;28;20035;-80
2023/07/31 20:37:12;;;;;;;5.72;2.33;;;;;;;24.40;53.97;99691.47;10338158;28;20050;-80
2023/07/31 20:42:15;;;;;;;6.68;2.40;;;;;;;24.49;54.00;99713.47;10319485;28;20510;-79
2023/07/31 20:47:16;;;;;;;9.00;2.40;;;;;;;24.23;54.18;99680.09;10337221;28;20034;-79
2023/07/31 20:52:17;;;;;;;4.55;2.13;;;;;;;23.86;54.46;99640.56;10337034;28;20490;-80
2023/07/31 20:57:17;;;;;;;7.55;2.40;;;;;;;24.30;54.90;99722.16;10337365;28;20101;-80
2023/07/31 21:02:18;;;;;;;11.77;2.20;;;;;;;23.87;54.85;99663.88;10335288;28;20058;-79
2023/07/31 21:07:19;;;;;;;7.72;2.45;;;;;;;24.30;55.26;99741.16;10335828;28;20127;-80
2023/07/31 21:12:20;;;;;;;9.15;2.17;;;;;;;24.00;55.71;99701.31;10336401;28;20058;-79
2023/07/31 21:17:20;;;;;;;8.60;2.90;;;;;;;23.68;56.43;99667.09;10336044;28;20050;-80
2023/07/31 21:22:21;;;;;;;5.82;2.00;;;;;;;23.98;56.58;99730.59;10317997;28;20048;-79
2023/07/31 21:27:25;;;;;;;7.13;2.10;;;;;;;23.50;56.83;99647.84;10335231;28;20049;-79
2023/07/31 21:32:25;;;;;;;;;;;;;;;24.10;56.43;99730.31;10336576;28;20026;-80
2023/07/31 21:37:26;;;;;;;10.63;2.20;;;;;;;22.91;57.98;99582.16;10335550;28;19918;-79
2023/07/31 21:42:27;;;;;;;4.90;1.95;;;;;;;23.67;58.27;99729.75;10334415;28;20494;-79
2023/07/31 21:47:27;;;;;;;5.70;2.40;;;;;;;23.21;58.48;99657.31;10334197;28;20129;-80
2023/07/31 21:52:28;;;;;;;10.77;2.15;;;;;;;23.60;58.93;99719.16;10334271;28;20050;-80
2023/07/31 21:57:29;;;;;;;5.72;2.15;;;;;;;23.28;59.26;99678.72;10334608;28;20046;-80
2023/07/31 22:02:30;;;;;;;8.15;2.17;;;;;;;23.40;59.64;99708.28;10334404;28;20479;-80
2023/07/31 22:07:31;;;;;;;8.73;2.55;;;;;;;23.41;60.32;99721.56;10334067;28;20482;-80
2023/07/31 22:12:31;;;;;;;6.35;2.03;;;;;;;23.31;61.27;99713.41;10334126;28;20062;-80
2023/07/31 22:17:32;;;;;;;7.15;1.95;;;;;;;22.99;61.53;99690.00;10333787;28;20119;-80
2023/07/31 22:22:34;;;;;;;8.18;2.47;;;;;;;21.84;62.79;99519.53;10334140;28;20046;-80
2023/07/31 22:27:35;;;;;;;5.35;2.13;;;;;;;22.61;63.42;99664.09;10333293;28;20042;-80
2023/07/31 22:32:35;;;;;;;4.10;1.85;;;;;;;22.90;63.43;99720.56;10332762;28;20038;-80
2023/07/31 22:37:36;;;;;;;5.28;1.95;;;;;;;22.25;63.42;99638.75;10333106;28;20042;-79
2023/07/31 22:42:37;;;;;;;3.08;1.90;;;;;;;22.10;63.46;99628.63;10333351;28;20451;-80
2023/07/31 22:47:39;;;;;;;3.35;1.80;;;;;;;22.58;63.39;99701.72;10314380;28;20125;-80
2023/07/31 22:52:40;;;;;;;6.88;1.83;;;;;;;21.78;63.59;99572.75;10333288;28;20046;-80
2023/07/31 22:57:41;;;;;;;7.60;2.03;;;;;;;22.25;63.90;99653.09;10331900;28;20550;-80
2023/07/31 23:02:42;;;;;;;6.55;2.08;;;;;;;22.07;63.44;99621.84;10331895;28;20093;-79
2023/07/31 23:07:43;;;;;;;6.35;1.92;;;;;;;22.74;63.55;99723.19;10331488;28;20053;-80
2023/07/31 23:12:43;;;;;;;6.28;1.63;;;;;;;22.06;63.65;99620.22;10332380;28;20481;-79